createdAt,value
2018-08-31T00:02:18.979Z,14.00
2018-08-31T00:04:58.531Z,14.00
2018-08-31T00:07:42.979Z,14.00
2018-08-31T00:12:40.255Z,14.10
2018-08-31T00:15:08.835Z,14.10
2018-08-31T00:17:38.449Z,14.00
2018-08-31T00:20:06.952Z,14.00
2018-08-31T00:22:35.195Z,14.10
2018-08-31T00:26:13.214Z,14.10
2018-08-31T00:29:07.323Z,13.90
2018-08-31T02:44:30.014Z,14.60
2018-08-31T03:00:43.008Z,14.30
2018-08-31T03:03:11.503Z,14.00
2018-08-31T03:05:41.186Z,14.40
2018-08-31T03:09:18.138Z,14.60
2018-08-31T03:11:46.505Z,14.40
2018-08-31T03:14:15.367Z,14.10
2018-08-31T03:16:43.979Z,14.00
2018-08-31T03:19:12.317Z,14.10
2018-08-31T03:21:40.722Z,14.10
2018-08-31T03:24:09.047Z,14.20
2018-08-31T03:26:37.322Z,14.30
2018-08-31T03:29:05.727Z,14.50
2018-08-31T03:31:34.076Z,14.40
2018-08-31T03:34:02.399Z,14.50
2018-08-31T03:36:30.984Z,14.70
2018-08-31T03:38:59.252Z,14.80
2018-08-31T03:47:33.155Z,14.10
2018-08-31T03:50:01.508Z,14.20
2018-08-31T03:52:29.806Z,14.10
2018-08-31T03:54:58.108Z,14.40
2018-08-31T03:57:26.400Z,14.30
2018-08-31T03:59:54.782Z,14.10
2018-08-31T04:02:23.123Z,14.40
2018-08-31T04:04:51.411Z,14.50
2018-08-31T04:07:19.703Z,14.50
2018-08-31T04:09:47.955Z,14.50
2018-08-31T04:12:16.224Z,14.40
2018-08-31T04:14:44.462Z,14.40
2018-08-31T04:17:12.767Z,14.40
2018-08-31T04:19:41.059Z,14.40
2018-08-31T04:22:09.303Z,14.40
2018-08-31T04:24:37.559Z,14.30
2018-08-31T04:27:05.843Z,14.30
2018-08-31T04:29:34.082Z,14.30
2018-08-31T04:32:02.411Z,14.40
2018-08-31T04:34:30.730Z,14.60
2018-08-31T04:36:59.159Z,14.80
2018-08-31T04:39:27.470Z,14.60
2018-08-31T04:41:55.795Z,14.50
2018-08-31T04:44:24.068Z,14.40
2018-08-31T04:46:52.345Z,14.40
2018-08-31T04:49:20.606Z,14.60
2018-08-31T04:51:48.863Z,14.40
2018-08-31T04:54:17.226Z,14.30
2018-08-31T04:56:45.596Z,14.30
2018-08-31T04:59:13.838Z,14.20
2018-08-31T05:01:42.119Z,14.50
2018-08-31T05:04:10.427Z,14.70
2018-08-31T05:06:38.791Z,14.40
2018-08-31T05:09:08.594Z,14.50
2018-08-31T05:11:36.857Z,14.60
2018-08-31T05:14:05.206Z,14.60
2018-08-31T05:16:43.296Z,14.50
2018-08-31T05:19:11.535Z,14.40
2018-08-31T05:21:39.846Z,14.50
2018-08-31T05:24:08.103Z,14.60
2018-08-31T05:26:36.359Z,14.50
2018-08-31T05:29:04.696Z,14.70
2018-08-31T05:31:32.947Z,14.60
2018-08-31T05:34:01.268Z,14.70
2018-08-31T05:36:29.506Z,14.80
2018-08-31T05:38:57.795Z,15.00
2018-08-31T05:41:26.079Z,15.20
2018-08-31T05:43:54.422Z,15.10
2018-08-31T05:46:22.790Z,15.40
2018-08-31T05:48:51.099Z,15.40
2018-08-31T05:51:19.375Z,15.70
2018-08-31T05:53:47.674Z,15.50
2018-08-31T05:56:15.924Z,15.20
2018-08-31T05:58:44.216Z,15.30
2018-08-31T06:01:16.367Z,15.30
2018-08-31T06:03:44.666Z,15.40
2018-08-31T06:06:12.993Z,15.30
2018-08-31T06:08:41.248Z,15.30
2018-08-31T06:11:09.591Z,15.10
2018-08-31T06:13:37.869Z,15.20
2018-08-31T06:16:06.218Z,15.60
2018-08-31T06:18:34.476Z,15.70
2018-08-31T06:21:02.786Z,15.90
2018-08-31T06:23:31.069Z,16.40
2018-08-31T06:26:00.049Z,16.70
2018-08-31T06:28:28.573Z,16.50
2018-08-31T06:30:56.810Z,16.70
2018-08-31T06:33:25.083Z,16.90
2018-08-31T06:35:53.315Z,16.60
2018-08-31T06:38:21.644Z,16.80
2018-08-31T06:40:49.849Z,17.00
2018-08-31T06:43:18.120Z,17.20
2018-08-31T06:45:46.382Z,17.40
2018-08-31T06:48:14.658Z,17.10
2018-08-31T06:50:42.928Z,17.20
2018-08-31T06:53:11.213Z,17.20
2018-08-31T06:55:39.510Z,16.90
2018-08-31T06:58:07.746Z,17.40
2018-08-31T07:00:36.058Z,17.60
2018-08-31T07:03:04.294Z,17.40
2018-08-31T07:05:32.551Z,17.60
2018-08-31T07:08:00.804Z,17.30
2018-08-31T07:10:29.067Z,17.30
2018-08-31T07:12:57.496Z,17.60
2018-08-31T07:15:25.808Z,17.20
2018-08-31T07:17:54.050Z,17.20
2018-08-31T07:20:22.306Z,17.40
2018-08-31T07:22:50.550Z,17.40
2018-08-31T07:25:18.826Z,17.50
2018-08-31T07:27:47.119Z,17.50
2018-08-31T07:30:15.411Z,17.60
2018-08-31T07:32:43.662Z,17.40
2018-08-31T07:35:11.894Z,17.30
2018-08-31T07:37:40.150Z,17.40
2018-08-31T07:40:08.399Z,17.50
2018-08-31T07:42:36.666Z,17.80
2018-08-31T07:45:04.950Z,17.70
2018-08-31T07:47:33.199Z,18.20
2018-08-31T07:50:01.467Z,18.70
2018-08-31T07:52:29.694Z,18.20
2018-08-31T07:54:57.979Z,17.80
2018-08-31T07:57:26.213Z,18.10
2018-08-31T07:59:54.486Z,18.90
2018-08-31T08:02:22.749Z,19.30
2018-08-31T08:04:51.005Z,19.40
2018-08-31T08:07:19.284Z,19.50
2018-08-31T08:09:47.620Z,19.00
2018-08-31T08:12:15.859Z,19.30
2018-08-31T08:14:44.255Z,19.60
2018-08-31T08:17:12.563Z,19.20
2018-08-31T08:19:40.983Z,18.90
2018-08-31T08:22:09.140Z,19.40
2018-08-31T08:24:37.464Z,19.20
2018-08-31T08:27:05.743Z,19.10
2018-08-31T08:29:34.029Z,18.90
2018-08-31T08:32:02.410Z,19.50
2018-08-31T08:34:30.709Z,19.70
2018-08-31T08:36:59.071Z,19.90
2018-08-31T08:39:27.558Z,19.80
2018-08-31T08:41:55.832Z,20.20
2018-08-31T08:44:24.138Z,20.00
2018-08-31T08:46:52.386Z,19.60
2018-08-31T08:49:20.661Z,19.60
2018-08-31T08:51:48.931Z,20.00
2018-08-31T08:54:17.179Z,20.00
2018-08-31T08:56:45.477Z,20.30
2018-08-31T08:59:13.760Z,20.20
2018-08-31T09:01:42.075Z,19.90
2018-08-31T09:04:10.514Z,19.80
2018-08-31T09:06:38.836Z,19.80
2018-08-31T09:09:08.347Z,20.40
2018-08-31T09:11:36.618Z,20.40
2018-08-31T09:14:05.006Z,20.70
2018-08-31T09:16:33.273Z,20.30
2018-08-31T09:19:01.659Z,20.10
2018-08-31T09:21:29.947Z,20.00
2018-08-31T09:23:58.272Z,20.00
2018-08-31T09:26:26.580Z,20.20
2018-08-31T09:28:54.855Z,20.00
2018-08-31T09:31:23.242Z,20.10
2018-08-31T09:33:51.703Z,20.50
2018-08-31T09:36:20.128Z,21.00
2018-08-31T09:38:48.406Z,20.90
2018-08-31T09:41:16.763Z,20.70
2018-08-31T09:43:45.040Z,20.50
2018-08-31T09:46:13.319Z,20.30
2018-08-31T09:48:41.604Z,20.20
2018-08-31T09:51:09.866Z,20.20
2018-08-31T09:53:38.151Z,20.80
2018-08-31T09:56:06.424Z,20.60
2018-08-31T09:58:34.708Z,20.40
2018-08-31T10:01:08.420Z,20.30
2018-08-31T10:03:36.683Z,20.00
2018-08-31T10:06:05.106Z,20.00
2018-08-31T10:08:33.470Z,20.30
2018-08-31T10:11:01.788Z,20.80
2018-08-31T10:13:30.072Z,21.00
2018-08-31T10:15:58.319Z,21.30
2018-08-31T10:18:26.593Z,21.20
2018-08-31T10:20:54.851Z,21.00
2018-08-31T10:23:23.152Z,20.80
2018-08-31T10:25:51.920Z,20.90
2018-08-31T10:28:20.234Z,21.20
2018-08-31T10:30:48.508Z,21.40
2018-08-31T10:33:16.856Z,21.70
2018-08-31T10:35:45.139Z,21.40
2018-08-31T10:38:13.469Z,21.10
2018-08-31T10:40:41.824Z,21.30
2018-08-31T10:43:10.096Z,21.40
2018-08-31T10:45:38.455Z,21.50
2018-08-31T10:48:06.906Z,21.90
2018-08-31T10:50:35.265Z,22.30
2018-08-31T10:53:03.619Z,22.30
2018-08-31T10:55:31.911Z,22.20
2018-08-31T10:58:00.188Z,22.20
2018-08-31T11:00:28.580Z,21.70
2018-08-31T11:02:57.891Z,22.00
2018-08-31T11:05:26.184Z,22.00
2018-08-31T11:07:54.535Z,22.40
2018-08-31T11:10:22.806Z,22.10
2018-08-31T11:12:51.148Z,21.80
2018-08-31T11:15:19.887Z,22.00
2018-08-31T11:17:48.117Z,21.90
2018-08-31T11:20:16.407Z,21.90
2018-08-31T11:22:44.716Z,22.50
2018-08-31T11:25:13.042Z,21.90
2018-08-31T11:27:41.352Z,21.50
2018-08-31T11:30:10.203Z,21.20
2018-08-31T11:32:38.712Z,21.20
2018-08-31T11:35:06.984Z,21.50
2018-08-31T11:37:35.446Z,21.50
2018-08-31T11:40:03.848Z,21.40
2018-08-31T11:42:32.298Z,21.30
2018-08-31T11:45:00.692Z,21.40
2018-08-31T11:47:29.071Z,21.60
2018-08-31T11:49:57.370Z,21.70
2018-08-31T11:52:25.644Z,21.90
2018-08-31T11:54:53.983Z,21.90
2018-08-31T11:57:22.325Z,22.30
2018-08-31T11:59:51.566Z,22.30
2018-08-31T12:02:20.088Z,22.00
2018-08-31T12:04:48.422Z,21.50
2018-08-31T12:07:16.760Z,21.30
2018-08-31T12:09:45.051Z,21.60
2018-08-31T12:12:13.434Z,21.50
2018-08-31T12:14:41.794Z,22.90
2018-08-31T12:17:10.371Z,23.30
2018-08-31T12:19:38.952Z,23.10
2018-08-31T12:22:07.449Z,23.90
2018-08-31T12:24:35.783Z,23.50
2018-08-31T12:27:04.248Z,23.60
2018-08-31T12:29:32.723Z,23.40
2018-08-31T12:32:01.244Z,23.50
2018-08-31T12:34:34.446Z,23.10
2018-08-31T12:37:02.868Z,22.70
2018-08-31T12:39:31.333Z,22.80
2018-08-31T12:41:59.769Z,23.00
2018-08-31T12:44:28.165Z,23.30
2018-08-31T12:46:56.486Z,23.30
2018-08-31T12:49:26.809Z,23.30
2018-08-31T12:51:55.080Z,23.50
2018-08-31T12:54:23.432Z,23.30
2018-08-31T12:56:51.742Z,23.90
2018-08-31T12:59:20.074Z,24.10
2018-08-31T13:01:48.371Z,24.20
2018-08-31T13:04:18.085Z,24.60
2018-08-31T13:09:26.644Z,24.10
2018-08-31T13:11:55.045Z,24.00
2018-08-31T13:14:23.374Z,23.60
2018-08-31T13:16:51.749Z,23.90
2018-08-31T13:19:20.025Z,23.90
2018-08-31T13:21:48.420Z,24.30
2018-08-31T13:24:16.903Z,23.90
2018-08-31T13:26:45.422Z,24.10
2018-08-31T13:29:14.320Z,23.80
2018-08-31T13:31:42.935Z,23.30
2018-08-31T13:34:11.241Z,23.10
2018-08-31T13:36:39.694Z,23.00
2018-08-31T13:39:09.755Z,23.50
2018-08-31T13:41:38.516Z,23.70
2018-08-31T13:44:07.052Z,24.00
2018-08-31T13:46:35.349Z,24.70
2018-08-31T13:49:03.811Z,24.60
2018-08-31T13:51:32.131Z,25.10
2018-08-31T13:54:00.371Z,24.10
2018-08-31T13:56:28.654Z,24.30
2018-08-31T13:58:56.950Z,24.20
2018-08-31T14:01:25.451Z,24.70
2018-08-31T14:03:53.748Z,24.80
2018-08-31T14:06:22.016Z,24.80
2018-08-31T14:08:50.422Z,24.10
2018-08-31T14:11:18.770Z,23.80
2018-08-31T14:13:47.139Z,24.40
2018-08-31T14:16:15.395Z,24.40
2018-08-31T14:18:43.790Z,24.50
2018-08-31T14:21:12.193Z,23.50
2018-08-31T14:23:40.710Z,22.70
2018-08-31T14:26:09.052Z,22.90
2018-08-31T14:28:37.536Z,23.30
2018-08-31T14:31:06.515Z,23.70
2018-08-31T14:33:34.762Z,23.70
2018-08-31T14:36:03.351Z,23.90
2018-08-31T14:38:31.890Z,23.80
2018-08-31T14:41:00.260Z,23.90
2018-08-31T14:43:28.657Z,24.50
2018-08-31T14:45:56.911Z,24.90
2018-08-31T14:48:25.232Z,25.30
2018-08-31T14:50:53.559Z,25.10
2018-08-31T14:53:21.823Z,24.30
2018-08-31T14:55:51.417Z,24.20
2018-08-31T14:58:19.703Z,24.60
2018-08-31T15:00:48.067Z,24.80
2018-08-31T15:03:16.363Z,24.50
2018-08-31T15:05:44.650Z,24.90
2018-08-31T15:08:13.055Z,25.30
2018-08-31T15:10:41.397Z,25.30
2018-08-31T15:13:09.743Z,25.10
2018-08-31T15:15:37.970Z,24.70
2018-08-31T15:18:06.808Z,24.00
2018-08-31T15:20:35.293Z,23.80
2018-08-31T15:23:03.556Z,23.50
2018-08-31T15:28:28.199Z,23.90
2018-08-31T15:30:57.419Z,23.80
2018-08-31T15:33:25.766Z,23.90
2018-08-31T15:35:54.085Z,24.00
2018-08-31T15:38:22.810Z,24.20
2018-08-31T15:40:51.179Z,24.50
2018-08-31T15:43:19.588Z,24.40
2018-08-31T15:45:47.858Z,24.50
2018-08-31T15:48:16.310Z,24.20
2018-08-31T15:50:44.919Z,23.10
2018-08-31T15:53:13.208Z,23.10
2018-08-31T15:55:41.862Z,23.20
2018-08-31T15:58:10.254Z,23.00
2018-08-31T16:00:40.553Z,23.20
2018-08-31T16:03:08.927Z,23.40
2018-08-31T16:05:37.476Z,23.10
2018-08-31T16:08:05.757Z,22.80
2018-08-31T16:10:34.047Z,22.80
2018-08-31T16:13:02.381Z,23.30
2018-08-31T16:15:30.728Z,23.50
2018-08-31T16:17:59.013Z,23.60
2018-08-31T16:20:27.296Z,23.30
2018-08-31T16:22:55.586Z,23.30
2018-08-31T16:25:23.994Z,23.00
2018-08-31T16:27:52.502Z,22.90
2018-08-31T16:30:20.776Z,22.20
2018-08-31T16:32:49.072Z,21.80
2018-08-31T16:35:17.335Z,21.60
2018-08-31T16:37:45.581Z,21.50
2018-08-31T16:40:13.927Z,21.90
2018-08-31T16:42:42.226Z,21.90
2018-08-31T16:45:10.568Z,21.70
2018-08-31T16:47:38.979Z,21.60
2018-08-31T16:50:07.250Z,21.30
2018-08-31T16:52:35.532Z,21.30
2018-08-31T16:55:04.976Z,21.40
2018-08-31T16:57:33.311Z,21.20
2018-08-31T17:00:01.905Z,21.30
2018-08-31T17:02:30.233Z,21.40
2018-08-31T17:04:58.644Z,21.70
2018-08-31T17:07:27.028Z,21.80
2018-08-31T17:09:55.282Z,21.60
2018-08-31T17:12:23.526Z,21.40
2018-08-31T17:14:51.916Z,21.30
2018-08-31T17:17:20.226Z,21.30
2018-08-31T17:19:48.527Z,21.20
2018-08-31T17:22:16.869Z,21.40
2018-08-31T17:24:45.175Z,21.50
2018-08-31T17:27:18.887Z,21.40
2018-08-31T17:29:48.120Z,21.40
2018-08-31T17:32:21.940Z,21.20
2018-08-31T17:35:00.575Z,21.00
2018-08-31T17:37:34.036Z,21.00
2018-08-31T17:40:02.280Z,20.80
2018-08-31T17:42:33.172Z,21.00
2018-08-31T17:45:02.931Z,20.90
2018-08-31T17:47:31.199Z,20.80
2018-08-31T17:49:59.492Z,20.50
2018-08-31T17:52:32.205Z,20.70
2018-08-31T17:55:01.024Z,20.50
2018-08-31T17:57:29.529Z,20.30
2018-08-31T17:59:58.005Z,20.20
2018-08-31T18:02:26.752Z,20.00
2018-08-31T18:04:55.119Z,19.80
2018-08-31T18:07:23.717Z,19.70
2018-08-31T18:09:52.134Z,19.60
2018-08-31T18:12:20.471Z,19.70
2018-08-31T18:14:51.075Z,19.40
2018-08-31T18:17:19.499Z,19.50
2018-08-31T18:19:47.824Z,19.30
2018-08-31T18:22:16.979Z,19.10
2018-08-31T18:24:45.343Z,19.10
2018-08-31T18:27:13.776Z,18.90
2018-08-31T18:29:42.180Z,18.80
2018-08-31T18:32:10.630Z,18.80
2018-08-31T18:37:38.698Z,18.60
2018-08-31T18:40:07.415Z,18.60
2018-08-31T18:42:35.662Z,18.50
2018-08-31T18:45:03.933Z,18.40
2018-08-31T18:47:32.328Z,18.30
2018-08-31T18:50:01.078Z,18.30
2018-08-31T18:52:29.820Z,18.20
2018-08-31T18:54:58.590Z,18.20
2018-08-31T18:57:26.868Z,18.10
2018-08-31T18:59:55.392Z,17.90
2018-08-31T19:02:23.716Z,17.90
2018-08-31T19:04:52.022Z,17.90
2018-08-31T19:07:20.416Z,17.80
2018-08-31T19:09:48.900Z,17.60
2018-08-31T19:12:17.183Z,17.50
2018-08-31T19:14:45.540Z,17.40
2018-08-31T19:17:14.996Z,17.40
2018-08-31T19:19:43.501Z,17.30
2018-08-31T19:22:12.013Z,17.20
2018-08-31T19:24:40.520Z,17.10
2018-08-31T19:27:09.052Z,17.10
2018-08-31T19:29:37.803Z,17.10
2018-08-31T19:32:06.274Z,17.00
2018-08-31T19:34:34.697Z,16.90
2018-08-31T19:37:03.353Z,16.80
2018-08-31T19:39:31.707Z,16.70
2018-08-31T19:42:00.028Z,16.60
2018-08-31T19:44:29.528Z,16.40
2018-08-31T19:46:57.912Z,16.30
2018-08-31T19:49:26.782Z,16.40
2018-08-31T19:51:55.090Z,16.10
2018-08-31T19:54:23.376Z,16.00
2018-08-31T19:56:52.584Z,16.00
2018-08-31T19:59:21.356Z,16.40
2018-08-31T20:01:50.545Z,16.80
2018-08-31T20:05:23.220Z,16.70
2018-08-31T20:07:57.082Z,16.30
2018-08-31T20:10:29.083Z,15.90
2018-08-31T20:12:58.723Z,15.80
2018-08-31T20:15:27.228Z,15.60
2018-08-31T20:17:55.623Z,15.70
2018-08-31T20:20:24.055Z,15.60
2018-08-31T20:22:52.545Z,15.70
2018-08-31T20:25:20.937Z,15.70
2018-08-31T20:27:49.680Z,15.80
2018-08-31T20:30:18.486Z,15.80
2018-08-31T20:32:47.230Z,15.80
2018-08-31T20:35:17.697Z,15.80
2018-08-31T20:37:49.096Z,15.60
2018-08-31T20:40:18.296Z,15.50
2018-08-31T20:42:47.422Z,15.50
2018-08-31T20:45:16.194Z,15.40
2018-08-31T20:47:44.907Z,15.30
2018-08-31T20:50:13.276Z,15.30
2018-08-31T20:52:42.480Z,15.50
2018-08-31T20:55:10.957Z,15.40
2018-08-31T20:57:39.403Z,15.10
2018-08-31T21:00:07.764Z,15.10
2018-08-31T21:02:36.109Z,15.00
2018-08-31T21:05:04.442Z,15.00
2018-08-31T21:07:32.752Z,14.90
2018-08-31T21:10:01.207Z,15.00
2018-08-31T21:12:29.504Z,14.70
2018-08-31T21:14:57.836Z,15.10
2018-08-31T21:17:26.124Z,15.00
2018-08-31T21:19:54.676Z,14.80
2018-08-31T21:22:23.004Z,14.80
2018-08-31T21:24:51.372Z,14.80
2018-08-31T21:27:19.792Z,14.50
2018-08-31T21:29:48.196Z,14.60
2018-08-31T21:32:16.643Z,14.60
